sensor_id;sensor_type;location;lat;lon;timestamp;pressure;altitude;pressure_sealevel;temperature;humidity
69171;BME280;56279;47.902;12.308;2023-04-09T00:01:14;95979.22;;;3.27;93.25
69171;BME280;56279;47.902;12.308;2023-04-09T00:03:15;95978.06;;;3.23;93.69
69171;BME280;56279;47.902;12.308;2023-04-09T00:05:17;95979.69;;;3.18;93.59
69171;BME280;56279;47.902;12.308;2023-04-09T00:07:19;95974.78;;;3.10;94.15
69171;BME280;56279;47.902;12.308;2023-04-09T00:09:21;95977.00;;;3.06;94.00
69171;BME280;56279;47.902;12.308;2023-04-09T00:11:25;95978.66;;;3.01;93.72
69171;BME280;56279;47.902;12.308;2023-04-09T00:13:26;95976.69;;;2.96;93.80
69171;BME280;56279;47.902;12.308;2023-04-09T00:15:28;95979.72;;;2.93;93.85
69171;BME280;56279;47.902;12.308;2023-04-09T00:17:30;95977.13;;;2.93;94.68
69171;BME280;56279;47.902;12.308;2023-04-09T00:19:33;95971.53;;;2.90;94.59
69171;BME280;56279;47.902;12.308;2023-04-09T00:21:36;95973.34;;;2.89;94.10
69171;BME280;56279;47.902;12.308;2023-04-09T00:23:41;95971.97;;;2.87;94.07
69171;BME280;56279;47.902;12.308;2023-04-09T00:25:44;95964.78;;;2.82;94.44
69171;BME280;56279;47.902;12.308;2023-04-09T00:27:46;95964.97;;;2.80;94.84
69171;BME280;56279;47.902;12.308;2023-04-09T00:29:47;95968.81;;;2.78;94.76
69171;BME280;56279;47.902;12.308;2023-04-09T00:31:52;95969.59;;;2.78;94.11
69171;BME280;56279;47.902;12.308;2023-04-09T00:33:54;95962.59;;;2.79;94.23
69171;BME280;56279;47.902;12.308;2023-04-09T00:35:56;95969.19;;;2.82;94.57
69171;BME280;56279;47.902;12.308;2023-04-09T00:37:58;95965.94;;;2.86;94.81
69171;BME280;56279;47.902;12.308;2023-04-09T00:40:00;95972.91;;;2.92;94.64
69171;BME280;56279;47.902;12.308;2023-04-09T00:42:02;95973.88;;;2.98;94.79
69171;BME280;56279;47.902;12.308;2023-04-09T00:44:04;95973.22;;;3.02;94.55
69171;BME280;56279;47.902;12.308;2023-04-09T00:46:05;95969.75;;;3.08;94.14
69171;BME280;56279;47.902;12.308;2023-04-09T00:48:07;95968.91;;;3.14;93.93
69171;BME280;56279;47.902;12.308;2023-04-09T00:50:08;95974.28;;;3.19;94.49
69171;BME280;56279;47.902;12.308;2023-04-09T00:52:10;95972.63;;;3.25;94.38
69171;BME280;56279;47.902;12.308;2023-04-09T00:54:16;95972.78;;;3.30;94.25
69171;BME280;56279;47.902;12.308;2023-04-09T00:56:21;95978.16;;;3.35;94.46
69171;BME280;56279;47.902;12.308;2023-04-09T00:58:24;95982.72;;;3.39;94.59
69171;BME280;56279;47.902;12.308;2023-04-09T01:00:25;95973.44;;;3.43;93.84
69171;BME280;56279;47.902;12.308;2023-04-09T01:02:29;95977.00;;;3.49;93.94
69171;BME280;56279;47.902;12.308;2023-04-09T01:04:32;95977.34;;;3.53;93.81
69171;BME280;56279;47.902;12.308;2023-04-09T01:06:41;95974.09;;;3.57;94.16
69171;BME280;56279;47.902;12.308;2023-04-09T01:09:13;95976.28;;;3.60;93.87
69171;BME280;56279;47.902;12.308;2023-04-09T01:11:50;95984.50;;;3.64;94.01
69171;BME280;56279;47.902;12.308;2023-04-09T01:16:31;95978.03;;;3.66;93.90
69171;BME280;56279;47.902;12.308;2023-04-09T01:18:44;95973.16;;;3.70;93.62
69171;BME280;56279;47.902;12.308;2023-04-09T01:20:58;95977.16;;;3.72;93.63
69171;BME280;56279;47.902;12.308;2023-04-09T01:23:06;95980.13;;;3.76;93.13
69171;BME280;56279;47.902;12.308;2023-04-09T01:25:22;95982.53;;;3.77;93.63
69171;BME280;56279;47.902;12.308;2023-04-09T01:27:39;95983.09;;;3.79;93.83
69171;BME280;56279;47.902;12.308;2023-04-09T01:29:47;95981.31;;;3.80;93.27
69171;BME280;56279;47.902;12.308;2023-04-09T01:31:51;95981.06;;;3.81;93.37
69171;BME280;56279;47.902;12.308;2023-04-09T01:33:54;95973.81;;;3.83;93.74
69171;BME280;56279;47.902;12.308;2023-04-09T01:35:57;95980.66;;;3.84;93.16
69171;BME280;56279;47.902;12.308;2023-04-09T01:38:00;95979.63;;;3.85;93.37
69171;BME280;56279;47.902;12.308;2023-04-09T01:40:06;95980.66;;;3.84;93.24
69171;BME280;56279;47.902;12.308;2023-04-09T01:42:09;95984.84;;;3.85;93.30
69171;BME280;56279;47.902;12.308;2023-04-09T01:44:12;95978.59;;;3.86;93.27
69171;BME280;56279;47.902;12.308;2023-04-09T01:46:19;95975.78;;;3.88;93.51
69171;BME280;56279;47.902;12.308;2023-04-09T01:48:23;95981.22;;;3.86;92.94
69171;BME280;56279;47.902;12.308;2023-04-09T01:50:24;95980.78;;;3.89;93.21
69171;BME280;56279;47.902;12.308;2023-04-09T01:52:26;95974.53;;;3.90;93.30
69171;BME280;56279;47.902;12.308;2023-04-09T01:54:27;95982.19;;;3.92;93.34
69171;BME280;56279;47.902;12.308;2023-04-09T01:56:48;95972.50;;;3.92;93.32
69171;BME280;56279;47.902;12.308;2023-04-09T01:58:51;95975.72;;;3.94;92.75
69171;BME280;56279;47.902;12.308;2023-04-09T02:00:58;95973.31;;;3.93;92.84
69171;BME280;56279;47.902;12.308;2023-04-09T02:03:23;95975.56;;;3.89;93.44
69171;BME280;56279;47.902;12.308;2023-04-09T02:05:28;95975.56;;;3.89;93.22
69171;BME280;56279;47.902;12.308;2023-04-09T02:07:38;95981.22;;;3.86;93.28
69171;BME280;56279;47.902;12.308;2023-04-09T02:09:44;95974.84;;;3.82;93.11
69171;BME280;56279;47.902;12.308;2023-04-09T02:11:51;95979.91;;;3.77;93.33
69171;BME280;56279;47.902;12.308;2023-04-09T02:13:57;95976.34;;;3.72;93.03
69171;BME280;56279;47.902;12.308;2023-04-09T02:16:00;95982.03;;;3.69;93.54
69171;BME280;56279;47.902;12.308;2023-04-09T02:18:01;95984.84;;;3.67;93.64
69171;BME280;56279;47.902;12.308;2023-04-09T02:20:04;95979.28;;;3.64;93.69
69171;BME280;56279;47.902;12.308;2023-04-09T02:22:07;95980.50;;;3.61;93.78
69171;BME280;56279;47.902;12.308;2023-04-09T02:24:08;95981.50;;;3.60;93.61
69171;BME280;56279;47.902;12.308;2023-04-09T02:26:09;95982.53;;;3.59;93.90
69171;BME280;56279;47.902;12.308;2023-04-09T02:28:11;95983.97;;;3.55;93.82
69171;BME280;56279;47.902;12.308;2023-04-09T02:30:13;95987.78;;;3.53;94.00
69171;BME280;56279;47.902;12.308;2023-04-09T02:32:18;95979.63;;;3.49;93.88
69171;BME280;56279;47.902;12.308;2023-04-09T02:34:21;95984.25;;;3.47;94.84
69171;BME280;56279;47.902;12.308;2023-04-09T02:36:23;95991.66;;;3.50;94.23
69171;BME280;56279;47.902;12.308;2023-04-09T02:38:24;95987.03;;;3.52;94.11
69171;BME280;56279;47.902;12.308;2023-04-09T02:40:25;95982.38;;;3.54;94.44
69171;BME280;56279;47.902;12.308;2023-04-09T02:42:29;95983.97;;;3.55;94.25
69171;BME280;56279;47.902;12.308;2023-04-09T02:44:31;95981.94;;;3.57;94.00
69171;BME280;56279;47.902;12.308;2023-04-09T02:46:32;95993.75;;;3.60;94.36
69171;BME280;56279;47.902;12.308;2023-04-09T02:48:35;95987.28;;;3.62;94.18
69171;BME280;56279;47.902;12.308;2023-04-09T02:50:39;95993.31;;;3.63;94.57
69171;BME280;56279;47.902;12.308;2023-04-09T02:52:45;95991.75;;;3.62;93.98
69171;BME280;56279;47.902;12.308;2023-04-09T02:54:46;95990.72;;;3.63;93.88
69171;BME280;56279;47.902;12.308;2023-04-09T02:56:49;95991.75;;;3.62;94.55
69171;BME280;56279;47.902;12.308;2023-04-09T02:58:50;95995.59;;;3.59;94.53
69171;BME280;56279;47.902;12.308;2023-04-09T03:00:54;95995.59;;;3.59;93.85
69171;BME280;56279;47.902;12.308;2023-04-09T03:02:55;95994.56;;;3.60;94.45
69171;BME280;56279;47.902;12.308;2023-04-09T03:04:56;95991.75;;;3.62;94.44
69171;BME280;56279;47.902;12.308;2023-04-09T03:06:57;96000.94;;;3.64;94.07
69171;BME280;56279;47.902;12.308;2023-04-09T03:08:59;95995.69;;;3.64;93.85
69171;BME280;56279;47.902;12.308;2023-04-09T03:11:01;96000.72;;;3.66;94.13
69171;BME280;56279;47.902;12.308;2023-04-09T03:13:02;95998.91;;;3.66;94.03
69171;BME280;56279;47.902;12.308;2023-04-09T03:15:04;95994.28;;;3.68;94.20
69171;BME280;56279;47.902;12.308;2023-04-09T03:17:05;95991.66;;;3.68;93.82
69171;BME280;56279;47.902;12.308;2023-04-09T03:19:07;95983.84;;;3.68;94.33
69171;BME280;56279;47.902;12.308;2023-04-09T03:21:10;95984.66;;;3.69;94.08
69171;BME280;56279;47.902;12.308;2023-04-09T03:23:19;95981.81;;;3.70;94.20
69171;BME280;56279;47.902;12.308;2023-04-09T03:25:22;95985.22;;;3.71;94.04
69171;BME280;56279;47.902;12.308;2023-04-09T03:27:27;95977.41;;;3.71;94.11
69171;BME280;56279;47.902;12.308;2023-04-09T03:29:31;95979.19;;;3.70;93.75
69171;BME280;56279;47.902;12.308;2023-04-09T03:31:33;95979.19;;;3.70;94.09
69171;BME280;56279;47.902;12.308;2023-04-09T03:33:37;95974.22;;;3.69;93.71
69171;BME280;56279;47.902;12.308;2023-04-09T03:35:41;95975.22;;;3.68;93.46
69171;BME280;56279;47.902;12.308;2023-04-09T03:37:44;95972.81;;;3.66;94.19
69171;BME280;56279;47.902;12.308;2023-04-09T03:39:52;95971.22;;;3.65;93.92
69171;BME280;56279;47.902;12.308;2023-04-09T03:41:58;95968.03;;;3.63;93.60
69171;BME280;56279;47.902;12.308;2023-04-09T03:44:03;95971.88;;;3.61;93.75
69171;BME280;56279;47.902;12.308;2023-04-09T03:46:32;95970.50;;;3.58;93.61
69171;BME280;56279;47.902;12.308;2023-04-09T03:48:35;95973.31;;;3.57;93.63
69171;BME280;56279;47.902;12.308;2023-04-09T03:50:42;95978.75;;;3.55;93.82
69171;BME280;56279;47.902;12.308;2023-04-09T03:52:48;95978.16;;;3.53;93.66
69171;BME280;56279;47.902;12.308;2023-04-09T03:54:49;95980.19;;;3.51;93.80
69171;BME280;56279;47.902;12.308;2023-04-09T03:56:56;95971.00;;;3.48;93.70
69171;BME280;56279;47.902;12.308;2023-04-09T03:59:02;95971.22;;;3.47;93.83
69171;BME280;56279;47.902;12.308;2023-04-09T04:01:11;95970.63;;;3.45;94.36
69171;BME280;56279;47.902;12.308;2023-04-09T04:03:30;95959.63;;;3.43;93.95
69171;BME280;56279;47.902;12.308;2023-04-09T04:06:01;95956.63;;;3.39;94.35
69171;BME280;56279;47.902;12.308;2023-04-09T04:08:10;95952.22;;;3.40;93.98
69171;BME280;56279;47.902;12.308;2023-04-09T04:10:12;95955.25;;;3.37;94.25
69171;BME280;56279;47.902;12.308;2023-04-09T04:12:18;95955.25;;;3.37;94.08
69171;BME280;56279;47.902;12.308;2023-04-09T04:14:37;95962.50;;;3.35;94.40
69171;BME280;56279;47.902;12.308;2023-04-09T04:16:51;95973.59;;;3.30;94.45
69171;BME280;56279;47.902;12.308;2023-04-09T04:18:56;95978.41;;;3.27;94.42
69171;BME280;56279;47.902;12.308;2023-04-09T04:20:58;95980.09;;;3.21;93.82
69171;BME280;56279;47.902;12.308;2023-04-09T04:23:01;95979.13;;;3.16;94.21
69171;BME280;56279;47.902;12.308;2023-04-09T04:25:03;95988.41;;;3.12;94.13
69171;BME280;56279;47.902;12.308;2023-04-09T04:27:06;95990.25;;;3.05;94.31
69171;BME280;56279;47.902;12.308;2023-04-09T04:29:10;95988.50;;;2.99;94.37
69171;BME280;56279;47.902;12.308;2023-04-09T04:31:38;95989.56;;;2.91;94.01
69171;BME280;56279;47.902;12.308;2023-04-09T04:33:41;95988.38;;;2.87;94.80
69171;BME280;56279;47.902;12.308;2023-04-09T04:35:47;96002.03;;;2.83;94.64
69171;BME280;56279;47.902;12.308;2023-04-09T04:38:07;95999.88;;;2.79;95.28
69171;BME280;56279;47.902;12.308;2023-04-09T04:40:13;95997.47;;;2.78;95.38
69171;BME280;56279;47.902;12.308;2023-04-09T04:42:17;95999.28;;;2.77;95.10
69171;BME280;56279;47.902;12.308;2023-04-09T04:44:19;96003.72;;;2.77;94.99
69171;BME280;56279;47.902;12.308;2023-04-09T04:46:23;96001.28;;;2.75;94.92
69171;BME280;56279;47.902;12.308;2023-04-09T04:48:27;95997.69;;;2.76;95.07
69171;BME280;56279;47.902;12.308;2023-04-09T04:50:29;96000.28;;;2.76;94.52
69171;BME280;56279;47.902;12.308;2023-04-09T04:52:41;95996.47;;;2.79;94.39
69171;BME280;56279;47.902;12.308;2023-04-09T04:54:43;95997.06;;;2.81;94.78
69171;BME280;56279;47.902;12.308;2023-04-09T04:56:50;95996.63;;;2.84;95.38
69171;BME280;56279;47.902;12.308;2023-04-09T04:59:14;95992.59;;;2.88;94.46
69171;BME280;56279;47.902;12.308;2023-04-09T05:01:30;95997.16;;;2.93;94.75
69171;BME280;56279;47.902;12.308;2023-04-09T05:03:32;95996.34;;;2.99;95.31
69171;BME280;56279;47.902;12.308;2023-04-09T05:05:45;96000.47;;;3.06;95.15
69171;BME280;56279;47.902;12.308;2023-04-09T05:07:48;96008.03;;;3.14;94.53
69171;BME280;56279;47.902;12.308;2023-04-09T05:09:52;96002.75;;;3.21;95.03
69171;BME280;56279;47.902;12.308;2023-04-09T05:11:53;96004.31;;;3.28;94.13
69171;BME280;56279;47.902;12.308;2023-04-09T05:13:58;96007.84;;;3.34;94.47
69171;BME280;56279;47.902;12.308;2023-04-09T05:16:00;96004.41;;;3.40;94.16
69171;BME280;56279;47.902;12.308;2023-04-09T05:18:06;96007.16;;;3.45;94.19
69171;BME280;56279;47.902;12.308;2023-04-09T05:20:09;96006.72;;;3.48;94.28
69171;BME280;56279;47.902;12.308;2023-04-09T05:22:26;96013.53;;;3.49;94.15
69171;BME280;56279;47.902;12.308;2023-04-09T05:24:28;96009.94;;;3.50;94.34
69171;BME280;56279;47.902;12.308;2023-04-09T05:26:29;96011.50;;;3.51;93.92
69171;BME280;56279;47.902;12.308;2023-04-09T05:28:32;96014.50;;;3.55;94.63
69171;BME280;56279;47.902;12.308;2023-04-09T05:30:46;96022.44;;;3.60;94.53
69171;BME280;56279;47.902;12.308;2023-04-09T05:32:50;96013.97;;;3.64;94.55
69171;BME280;56279;47.902;12.308;2023-04-09T05:34:53;96013.34;;;3.69;94.17
69171;BME280;56279;47.902;12.308;2023-04-09T05:36:55;96014.28;;;3.74;94.17
69171;BME280;56279;47.902;12.308;2023-04-09T05:38:58;96018.66;;;3.80;93.65
69171;BME280;56279;47.902;12.308;2023-04-09T05:40:59;96016.63;;;3.82;94.04
69171;BME280;56279;47.902;12.308;2023-04-09T05:43:02;96016.16;;;3.85;93.37
69171;BME280;56279;47.902;12.308;2023-04-09T05:45:13;96017.13;;;3.91;93.47
69171;BME280;56279;47.902;12.308;2023-04-09T05:47:23;96019.88;;;3.96;93.16
69171;BME280;56279;47.902;12.308;2023-04-09T05:49:43;96019.00;;;4.02;93.24
69171;BME280;56279;47.902;12.308;2023-04-09T05:51:49;96017.34;;;4.07;93.05
69171;BME280;56279;47.902;12.308;2023-04-09T05:53:57;96018.72;;;4.10;92.98
69171;BME280;56279;47.902;12.308;2023-04-09T05:56:01;96016.66;;;4.12;92.71
69171;BME280;56279;47.902;12.308;2023-04-09T05:58:14;96021.25;;;4.16;92.41
69171;BME280;56279;47.902;12.308;2023-04-09T06:00:22;96023.19;;;4.21;92.20
69171;BME280;56279;47.902;12.308;2023-04-09T06:02:25;96026.94;;;4.25;92.20
69171;BME280;56279;47.902;12.308;2023-04-09T06:04:30;96032.56;;;4.29;92.13
69171;BME280;56279;47.902;12.308;2023-04-09T06:06:33;96033.13;;;4.31;92.92
69171;BME280;56279;47.902;12.308;2023-04-09T06:08:35;96031.22;;;4.38;92.64
69171;BME280;56279;47.902;12.308;2023-04-09T06:10:37;96036.59;;;4.43;92.02
69171;BME280;56279;47.902;12.308;2023-04-09T06:12:39;96036.13;;;4.46;92.28
69171;BME280;56279;47.902;12.308;2023-04-09T06:14:41;96038.88;;;4.51;92.32
69171;BME280;56279;47.902;12.308;2023-04-09T06:16:42;96041.44;;;4.57;91.96
69171;BME280;56279;47.902;12.308;2023-04-09T06:18:44;96036.31;;;4.62;91.52
69171;BME280;56279;47.902;12.308;2023-04-09T06:20:49;96037.03;;;4.69;91.94
69171;BME280;56279;47.902;12.308;2023-04-09T06:22:51;96035.13;;;4.76;91.38
69171;BME280;56279;47.902;12.308;2023-04-09T06:24:53;96037.88;;;4.81;91.08
69171;BME280;56279;47.902;12.308;2023-04-09T06:26:54;96038.09;;;4.80;91.18
69171;BME280;56279;47.902;12.308;2023-04-09T06:29:02;96032.06;;;4.79;91.10
69171;BME280;56279;47.902;12.308;2023-04-09T06:31:04;96036.34;;;4.74;91.27
69171;BME280;56279;47.902;12.308;2023-04-09T06:33:05;96049.75;;;4.66;91.19
69171;BME280;56279;47.902;12.308;2023-04-09T06:35:08;96044.38;;;4.61;91.52
69171;BME280;56279;47.902;12.308;2023-04-09T06:37:09;96046.44;;;4.59;91.32
69171;BME280;56279;47.902;12.308;2023-04-09T06:39:13;96052.47;;;4.59;91.62
69171;BME280;56279;47.902;12.308;2023-04-09T06:41:14;96044.81;;;4.58;91.63
69171;BME280;56279;47.902;12.308;2023-04-09T06:43:18;96055.06;;;4.59;91.59
69171;BME280;56279;47.902;12.308;2023-04-09T06:45:25;96049.63;;;4.61;91.51
69171;BME280;56279;47.902;12.308;2023-04-09T06:47:28;96054.41;;;4.64;91.46
69171;BME280;56279;47.902;12.308;2023-04-09T06:49:30;96056.00;;;4.65;91.43
69171;BME280;56279;47.902;12.308;2023-04-09T06:51:31;96056.56;;;4.67;91.63
69171;BME280;56279;47.902;12.308;2023-04-09T06:53:33;96046.72;;;4.69;91.35
69171;BME280;56279;47.902;12.308;2023-04-09T06:55:35;96052.50;;;4.71;91.27
69171;BME280;56279;47.902;12.308;2023-04-09T06:57:37;96048.28;;;4.70;91.32
69171;BME280;56279;47.902;12.308;2023-04-09T06:59:46;96051.34;;;4.67;91.21
69171;BME280;56279;47.902;12.308;2023-04-09T07:01:49;96048.94;;;4.65;91.04
69171;BME280;56279;47.902;12.308;2023-04-09T07:03:53;96056.00;;;4.65;91.11
69171;BME280;56279;47.902;12.308;2023-04-09T07:05:54;96056.00;;;4.65;91.41
69171;BME280;56279;47.902;12.308;2023-04-09T07:08:03;96050.31;;;4.68;91.50
69171;BME280;56279;47.902;12.308;2023-04-09T07:10:06;96058.16;;;4.68;91.19
69171;BME280;56279;47.902;12.308;2023-04-09T07:12:08;96059.63;;;4.64;91.21
69171;BME280;56279;47.902;12.308;2023-04-09T07:14:09;96062.25;;;4.64;91.36
69171;BME280;56279;47.902;12.308;2023-04-09T07:16:12;96061.59;;;4.68;91.44
69171;BME280;56279;47.902;12.308;2023-04-09T07:18:13;96070.94;;;4.76;91.51
69171;BME280;56279;47.902;12.308;2023-04-09T07:20:15;96066.44;;;4.83;91.02
69171;BME280;56279;47.902;12.308;2023-04-09T07:22:21;96061.91;;;4.90;91.23
69171;BME280;56279;47.902;12.308;2023-04-09T07:24:23;96063.19;;;4.99;90.76
69171;BME280;56279;47.902;12.308;2023-04-09T07:26:24;96065.88;;;5.04;90.39
69171;BME280;56279;47.902;12.308;2023-04-09T07:28:29;96066.59;;;5.11;90.92
69171;BME280;56279;47.902;12.308;2023-04-09T07:30:31;96064.59;;;5.25;90.38
69171;BME280;56279;47.902;12.308;2023-04-09T07:32:35;96067.00;;;5.38;90.08
69171;BME280;56279;47.902;12.308;2023-04-09T07:34:37;96074.41;;;5.52;89.95
69171;BME280;56279;47.902;12.308;2023-04-09T07:36:41;96068.16;;;5.65;89.89
69171;BME280;56279;47.902;12.308;2023-04-09T07:38:42;96064.84;;;5.70;89.48
69171;BME280;56279;47.902;12.308;2023-04-09T07:40:45;96071.56;;;5.77;89.61
69171;BME280;56279;47.902;12.308;2023-04-09T07:42:46;96071.03;;;5.87;89.27
69171;BME280;56279;47.902;12.308;2023-04-09T07:44:47;96073.66;;;5.87;88.48
69171;BME280;56279;47.902;12.308;2023-04-09T07:46:49;96076.69;;;5.84;88.96
69171;BME280;56279;47.902;12.308;2023-04-09T07:48:50;96076.28;;;5.87;88.72
69171;BME280;56279;47.902;12.308;2023-04-09T07:50:52;96082.06;;;5.89;88.64
69171;BME280;56279;47.902;12.308;2023-04-09T07:52:53;96087.31;;;6.00;88.58
69171;BME280;56279;47.902;12.308;2023-04-09T07:54:55;96073.97;;;6.25;88.19
69171;BME280;56279;47.902;12.308;2023-04-09T07:56:59;96078.66;;;6.51;87.57
69171;BME280;56279;47.902;12.308;2023-04-09T07:59:05;96082.06;;;6.63;86.85
69171;BME280;56279;47.902;12.308;2023-04-09T08:01:06;96080.25;;;6.64;86.81
69171;BME280;56279;47.902;12.308;2023-04-09T08:03:08;96081.25;;;6.63;86.48
69171;BME280;56279;47.902;12.308;2023-04-09T08:05:09;96077.88;;;6.62;87.16
69171;BME280;56279;47.902;12.308;2023-04-09T08:07:11;96082.16;;;6.68;87.15
69171;BME280;56279;47.902;12.308;2023-04-09T08:09:13;96077.25;;;6.72;86.63
69171;BME280;56279;47.902;12.308;2023-04-09T08:11:15;96076.22;;;6.73;86.45
69171;BME280;56279;47.902;12.308;2023-04-09T08:13:16;96077.34;;;6.77;86.52
69171;BME280;56279;47.902;12.308;2023-04-09T08:15:17;96081.81;;;6.76;86.26
69171;BME280;56279;47.902;12.308;2023-04-09T08:17:19;96084.88;;;6.73;86.40
69171;BME280;56279;47.902;12.308;2023-04-09T08:19:20;96084.03;;;6.84;86.28
69171;BME280;56279;47.902;12.308;2023-04-09T08:21:22;96086.31;;;6.92;85.92
69171;BME280;56279;47.902;12.308;2023-04-09T08:23:23;96087.88;;;6.93;85.20
69171;BME280;56279;47.902;12.308;2023-04-09T08:25:24;96082.97;;;6.97;85.80
69171;BME280;56279;47.902;12.308;2023-04-09T08:27:27;96085.00;;;7.07;84.67
69171;BME280;56279;47.902;12.308;2023-04-09T08:29:28;96084.94;;;7.18;85.04
69171;BME280;56279;47.902;12.308;2023-04-09T08:31:30;96084.94;;;7.35;84.34
69171;BME280;56279;47.902;12.308;2023-04-09T08:33:31;96080.19;;;7.48;83.61
69171;BME280;56279;47.902;12.308;2023-04-09T08:35:33;96073.41;;;7.69;82.89
69171;BME280;56279;47.902;12.308;2023-04-09T08:37:36;96080.22;;;7.87;82.75
69171;BME280;56279;47.902;12.308;2023-04-09T08:39:38;96082.13;;;7.91;81.59
69171;BME280;56279;47.902;12.308;2023-04-09T08:41:42;96080.84;;;7.94;82.20
69171;BME280;56279;47.902;12.308;2023-04-09T08:43:46;96076.31;;;7.89;81.19
69171;BME280;56279;47.902;12.308;2023-04-09T08:45:48;96081.94;;;7.76;81.89
69171;BME280;56279;47.902;12.308;2023-04-09T08:47:50;96087.25;;;7.64;81.54
69171;BME280;56279;47.902;12.308;2023-04-09T08:49:52;96092.69;;;7.58;81.42
69171;BME280;56279;47.902;12.308;2023-04-09T08:51:56;96090.06;;;7.58;82.19
69171;BME280;56279;47.902;12.308;2023-04-09T08:53:58;96087.56;;;7.68;81.71
69171;BME280;56279;47.902;12.308;2023-04-09T08:56:00;96089.56;;;7.78;81.47
69171;BME280;56279;47.902;12.308;2023-04-09T08:58:06;96087.56;;;7.85;80.71
69171;BME280;56279;47.902;12.308;2023-04-09T09:00:10;96093.69;;;7.90;80.11
69171;BME280;56279;47.902;12.308;2023-04-09T09:02:17;96091.88;;;7.91;79.58
69171;BME280;56279;47.902;12.308;2023-04-09T09:04:18;96091.16;;;7.95;79.77
69171;BME280;56279;47.902;12.308;2023-04-09T09:06:21;96090.31;;;8.11;79.55
69171;BME280;56279;47.902;12.308;2023-04-09T09:08:26;96091.72;;;8.35;79.63
69171;BME280;56279;47.902;12.308;2023-04-09T09:10:41;96093.69;;;8.67;79.12
69171;BME280;56279;47.902;12.308;2023-04-09T09:12:42;96099.28;;;8.97;78.59
69171;BME280;56279;47.902;12.308;2023-04-09T09:14:44;96093.31;;;9.28;77.79
69171;BME280;56279;47.902;12.308;2023-04-09T09:19:00;96092.50;;;9.59;75.63
69171;BME280;56279;47.902;12.308;2023-04-09T09:21:15;96096.97;;;9.54;75.33
69171;BME280;56279;47.902;12.308;2023-04-09T09:23:33;96090.66;;;9.28;75.45
69171;BME280;56279;47.902;12.308;2023-04-09T09:25:42;96097.94;;;9.16;76.56
69171;BME280;56279;47.902;12.308;2023-04-09T09:27:43;96098.94;;;9.15;77.06
69171;BME280;56279;47.902;12.308;2023-04-09T09:29:45;96092.66;;;9.16;76.57
69171;BME280;56279;47.902;12.308;2023-04-09T09:31:48;96093.19;;;9.18;76.28
69171;BME280;56279;47.902;12.308;2023-04-09T09:33:52;96092.66;;;9.16;75.73
69171;BME280;56279;47.902;12.308;2023-04-09T09:35:54;96090.78;;;9.12;75.89
69171;BME280;56279;47.902;12.308;2023-04-09T09:38:03;96097.13;;;9.16;76.68
69171;BME280;56279;47.902;12.308;2023-04-09T09:40:06;96088.03;;;9.28;75.76
69171;BME280;56279;47.902;12.308;2023-04-09T09:42:07;96092.25;;;9.29;75.24
69171;BME280;56279;47.902;12.308;2023-04-09T09:44:10;96089.03;;;9.22;75.54
69171;BME280;56279;47.902;12.308;2023-04-09T09:46:12;96084.16;;;9.09;75.56
69171;BME280;56279;47.902;12.308;2023-04-09T09:48:13;96086.06;;;8.92;75.71
69171;BME280;56279;47.902;12.308;2023-04-09T09:50:15;96090.66;;;8.75;76.30
69171;BME280;56279;47.902;12.308;2023-04-09T09:52:26;96088.44;;;8.67;76.65
69171;BME280;56279;47.902;12.308;2023-04-09T09:54:37;96086.53;;;8.62;76.13
69171;BME280;56279;47.902;12.308;2023-04-09T09:56:42;96085.81;;;8.67;76.51
69171;BME280;56279;47.902;12.308;2023-04-09T09:58:53;96089.59;;;8.76;76.17
69171;BME280;56279;47.902;12.308;2023-04-09T10:00:59;96090.94;;;8.78;75.92
69171;BME280;56279;47.902;12.308;2023-04-09T10:03:10;96087.34;;;8.84;75.62
69171;BME280;56279;47.902;12.308;2023-04-09T10:05:19;96084.03;;;8.99;75.09
69171;BME280;56279;47.902;12.308;2023-04-09T10:07:27;96085.84;;;9.20;74.93
69171;BME280;56279;47.902;12.308;2023-04-09T10:09:29;96081.31;;;9.42;73.90
69171;BME280;56279;47.902;12.308;2023-04-09T10:11:34;96083.53;;;9.55;73.08
69171;BME280;56279;47.902;12.308;2023-04-09T10:13:49;96081.56;;;9.72;73.02
69171;BME280;56279;47.902;12.308;2023-04-09T10:15:51;96080.63;;;9.89;72.85
69171;BME280;56279;47.902;12.308;2023-04-09T10:17:56;96078.56;;;9.96;72.68
69171;BME280;56279;47.902;12.308;2023-04-09T10:20:14;96079.88;;;9.93;72.45
69171;BME280;56279;47.902;12.308;2023-04-09T10:22:20;96077.88;;;9.73;72.81
69171;BME280;56279;47.902;12.308;2023-04-09T10:24:23;96074.88;;;9.60;73.48
69171;BME280;56279;47.902;12.308;2023-04-09T10:26:25;96078.31;;;9.60;73.26
69171;BME280;56279;47.902;12.308;2023-04-09T10:28:28;96078.25;;;9.55;73.20
69171;BME280;56279;47.902;12.308;2023-04-09T10:30:35;96081.00;;;9.39;72.88
69171;BME280;56279;47.902;12.308;2023-04-09T10:32:37;96079.22;;;9.18;72.50
69171;BME280;56279;47.902;12.308;2023-04-09T10:34:41;96082.41;;;8.93;72.97
69171;BME280;56279;47.902;12.308;2023-04-09T10:36:48;96075.03;;;8.68;73.44
69171;BME280;56279;47.902;12.308;2023-04-09T10:39:11;96073.09;;;8.37;73.92
69171;BME280;56279;47.902;12.308;2023-04-09T10:41:30;96075.56;;;8.10;74.77
69171;BME280;56279;47.902;12.308;2023-04-09T10:43:35;96087.91;;;7.88;75.84
69171;BME280;56279;47.902;12.308;2023-04-09T10:45:40;96079.63;;;7.63;75.91
69171;BME280;56279;47.902;12.308;2023-04-09T10:47:49;96086.88;;;7.39;77.26
69171;BME280;56279;47.902;12.308;2023-04-09T10:49:56;96088.50;;;7.29;78.00
69171;BME280;56279;47.902;12.308;2023-04-09T10:52:06;96088.28;;;7.30;78.65
69171;BME280;56279;47.902;12.308;2023-04-09T10:56:34;96087.94;;;7.27;79.17
69171;BME280;56279;47.902;12.308;2023-04-09T10:58:36;96084.88;;;7.30;79.53
69171;BME280;56279;47.902;12.308;2023-04-09T11:00:46;96080.47;;;7.35;79.47
69171;BME280;56279;47.902;12.308;2023-04-09T11:05:27;96084.16;;;7.51;79.56
69171;BME280;56279;47.902;12.308;2023-04-09T11:07:34;96085.34;;;7.60;79.79
69171;BME280;56279;47.902;12.308;2023-04-09T11:09:40;96080.50;;;7.68;79.59
69171;BME280;56279;47.902;12.308;2023-04-09T11:11:42;96078.56;;;7.81;80.32